sensor_id;sensor_type;location;lat;lon;timestamp;P1;durP1;ratioP1;P2;durP2;ratioP2
70899;SDS011;67902;52.154;5.430;2023-05-23T00:01:00;16.42;;;6.45;;
70899;SDS011;67902;52.154;5.430;2023-05-23T00:03:27;16.85;;;6.40;;
70899;SDS011;67902;52.154;5.430;2023-05-23T00:05:54;16.52;;;6.75;;
70899;SDS011;67902;52.154;5.430;2023-05-23T00:08:21;16.17;;;7.50;;
70899;SDS011;67902;52.154;5.430;2023-05-23T00:10:48;20.67;;;7.07;;
70899;SDS011;67902;52.154;5.430;2023-05-23T00:13:14;18.13;;;7.30;;
70899;SDS011;67902;52.154;5.430;2023-05-23T00:15:41;21.90;;;7.55;;
70899;SDS011;67902;52.154;5.430;2023-05-23T00:18:08;17.88;;;6.60;;
70899;SDS011;67902;52.154;5.430;2023-05-23T00:20:36;20.10;;;6.65;;
70899;SDS011;67902;52.154;5.430;2023-05-23T00:23:06;15.30;;;6.57;;
70899;SDS011;67902;52.154;5.430;2023-05-23T00:25:37;14.27;;;6.43;;
70899;SDS011;67902;52.154;5.430;2023-05-23T00:28:06;16.33;;;6.55;;
70899;SDS011;67902;52.154;5.430;2023-05-23T00:30:33;17.17;;;6.38;;
70899;SDS011;67902;52.154;5.430;2023-05-23T00:32:59;19.48;;;7.20;;
70899;SDS011;67902;52.154;5.430;2023-05-23T00:35:26;16.02;;;6.70;;
70899;SDS011;67902;52.154;5.430;2023-05-23T00:37:52;17.85;;;6.22;;
70899;SDS011;67902;52.154;5.430;2023-05-23T00:40:19;17.73;;;7.50;;
70899;SDS011;67902;52.154;5.430;2023-05-23T00:42:46;15.77;;;6.40;;
70899;SDS011;67902;52.154;5.430;2023-05-23T00:45:14;13.45;;;5.90;;
70899;SDS011;67902;52.154;5.430;2023-05-23T00:47:42;14.90;;;6.60;;
70899;SDS011;67902;52.154;5.430;2023-05-23T00:50:10;16.58;;;6.63;;
70899;SDS011;67902;52.154;5.430;2023-05-23T00:52:39;17.23;;;6.72;;
70899;SDS011;67902;52.154;5.430;2023-05-23T00:55:07;14.93;;;6.43;;
70899;SDS011;67902;52.154;5.430;2023-05-23T00:57:35;17.48;;;6.40;;
70899;SDS011;67902;52.154;5.430;2023-05-23T01:00:09;16.88;;;6.43;;
70899;SDS011;67902;52.154;5.430;2023-05-23T01:02:46;15.05;;;6.07;;
70899;SDS011;67902;52.154;5.430;2023-05-23T01:05:17;12.52;;;5.90;;
70899;SDS011;67902;52.154;5.430;2023-05-23T01:07:45;11.57;;;5.43;;
70899;SDS011;67902;52.154;5.430;2023-05-23T01:12:43;14.07;;;5.18;;
70899;SDS011;67902;52.154;5.430;2023-05-23T01:15:39;14.52;;;5.88;;
70899;SDS011;67902;52.154;5.430;2023-05-23T01:18:20;13.48;;;5.70;;
70899;SDS011;67902;52.154;5.430;2023-05-23T01:21:16;13.20;;;5.43;;
70899;SDS011;67902;52.154;5.430;2023-05-23T01:24:06;12.80;;;5.43;;
70899;SDS011;67902;52.154;5.430;2023-05-23T01:26:43;14.18;;;5.50;;
70899;SDS011;67902;52.154;5.430;2023-05-23T01:29:14;13.98;;;5.28;;
70899;SDS011;67902;52.154;5.430;2023-05-23T01:31:47;12.18;;;5.20;;
70899;SDS011;67902;52.154;5.430;2023-05-23T01:34:17;16.75;;;5.53;;
70899;SDS011;67902;52.154;5.430;2023-05-23T01:36:45;16.77;;;5.95;;
70899;SDS011;67902;52.154;5.430;2023-05-23T01:39:15;12.32;;;4.75;;
70899;SDS011;67902;52.154;5.430;2023-05-23T01:41:42;14.07;;;5.18;;
70899;SDS011;67902;52.154;5.430;2023-05-23T01:44:08;11.77;;;5.40;;
70899;SDS011;67902;52.154;5.430;2023-05-23T01:46:35;12.65;;;5.78;;
70899;SDS011;67902;52.154;5.430;2023-05-23T01:49:04;13.50;;;4.78;;
70899;SDS011;67902;52.154;5.430;2023-05-23T01:51:33;12.70;;;5.10;;
70899;SDS011;67902;52.154;5.430;2023-05-23T01:54:00;14.70;;;5.63;;
70899;SDS011;67902;52.154;5.430;2023-05-23T01:56:27;16.10;;;5.43;;
70899;SDS011;67902;52.154;5.430;2023-05-23T01:58:54;13.35;;;5.45;;
70899;SDS011;67902;52.154;5.430;2023-05-23T02:01:20;13.65;;;5.40;;
70899;SDS011;67902;52.154;5.430;2023-05-23T02:03:47;16.35;;;6.00;;
70899;SDS011;67902;52.154;5.430;2023-05-23T02:06:14;15.27;;;5.45;;
70899;SDS011;67902;52.154;5.430;2023-05-23T02:08:41;14.20;;;5.45;;
70899;SDS011;67902;52.154;5.430;2023-05-23T02:11:07;13.75;;;5.40;;
70899;SDS011;67902;52.154;5.430;2023-05-23T02:13:34;17.08;;;5.20;;
70899;SDS011;67902;52.154;5.430;2023-05-23T02:16:00;14.65;;;4.90;;
70899;SDS011;67902;52.154;5.430;2023-05-23T02:18:27;12.27;;;4.97;;
70899;SDS011;67902;52.154;5.430;2023-05-23T02:20:55;16.67;;;5.68;;
70899;SDS011;67902;52.154;5.430;2023-05-23T02:23:21;15.68;;;4.65;;
70899;SDS011;67902;52.154;5.430;2023-05-23T02:25:48;15.93;;;6.13;;
70899;SDS011;67902;52.154;5.430;2023-05-23T02:28:14;17.77;;;5.32;;
70899;SDS011;67902;52.154;5.430;2023-05-23T02:30:41;17.27;;;5.55;;
70899;SDS011;67902;52.154;5.430;2023-05-23T02:33:07;13.50;;;5.57;;
70899;SDS011;67902;52.154;5.430;2023-05-23T02:35:33;20.70;;;5.43;;
70899;SDS011;67902;52.154;5.430;2023-05-23T02:38:00;13.88;;;5.22;;
70899;SDS011;67902;52.154;5.430;2023-05-23T02:40:26;15.57;;;5.43;;
70899;SDS011;67902;52.154;5.430;2023-05-23T02:42:53;14.40;;;5.03;;
70899;SDS011;67902;52.154;5.430;2023-05-23T02:45:22;15.23;;;4.97;;
70899;SDS011;67902;52.154;5.430;2023-05-23T02:47:49;18.33;;;5.90;;
70899;SDS011;67902;52.154;5.430;2023-05-23T02:50:16;13.95;;;5.43;;
70899;SDS011;67902;52.154;5.430;2023-05-23T02:52:42;14.57;;;4.57;;
70899;SDS011;67902;52.154;5.430;2023-05-23T02:55:09;16.90;;;5.60;;
70899;SDS011;67902;52.154;5.430;2023-05-23T02:57:35;17.52;;;4.68;;
70899;SDS011;67902;52.154;5.430;2023-05-23T03:00:02;14.20;;;5.50;;
70899;SDS011;67902;52.154;5.430;2023-05-23T03:02:29;16.27;;;5.18;;
70899;SDS011;67902;52.154;5.430;2023-05-23T03:04:56;16.80;;;5.60;;
70899;SDS011;67902;52.154;5.430;2023-05-23T03:07:22;20.77;;;5.80;;
70899;SDS011;67902;52.154;5.430;2023-05-23T03:09:54;19.10;;;5.47;;
70899;SDS011;67902;52.154;5.430;2023-05-23T03:12:21;22.27;;;5.50;;
70899;SDS011;67902;52.154;5.430;2023-05-23T03:14:47;18.85;;;5.60;;
70899;SDS011;67902;52.154;5.430;2023-05-23T03:17:14;15.45;;;5.20;;
70899;SDS011;67902;52.154;5.430;2023-05-23T03:19:40;20.08;;;6.22;;
70899;SDS011;67902;52.154;5.430;2023-05-23T03:22:07;19.75;;;5.55;;
70899;SDS011;67902;52.154;5.430;2023-05-23T03:24:33;22.40;;;6.80;;
70899;SDS011;67902;52.154;5.430;2023-05-23T03:26:59;19.90;;;5.97;;
70899;SDS011;67902;52.154;5.430;2023-05-23T03:29:27;19.05;;;6.03;;
70899;SDS011;67902;52.154;5.430;2023-05-23T03:31:53;20.02;;;5.85;;
70899;SDS011;67902;52.154;5.430;2023-05-23T03:34:20;22.50;;;6.97;;
70899;SDS011;67902;52.154;5.430;2023-05-23T03:36:48;18.23;;;5.78;;
70899;SDS011;67902;52.154;5.430;2023-05-23T03:39:16;20.98;;;6.03;;
70899;SDS011;67902;52.154;5.430;2023-05-23T03:41:42;25.30;;;6.50;;
70899;SDS011;67902;52.154;5.430;2023-05-23T03:44:09;20.75;;;6.15;;
70899;SDS011;67902;52.154;5.430;2023-05-23T03:46:35;21.55;;;6.10;;
70899;SDS011;67902;52.154;5.430;2023-05-23T03:49:04;19.88;;;6.53;;
70899;SDS011;67902;52.154;5.430;2023-05-23T03:51:30;25.73;;;7.03;;
70899;SDS011;67902;52.154;5.430;2023-05-23T03:53:57;20.17;;;5.65;;
70899;SDS011;67902;52.154;5.430;2023-05-23T03:56:23;23.42;;;6.60;;
70899;SDS011;67902;52.154;5.430;2023-05-23T03:58:51;16.23;;;5.82;;
70899;SDS011;67902;52.154;5.430;2023-05-23T04:01:17;18.60;;;6.22;;
70899;SDS011;67902;52.154;5.430;2023-05-23T04:03:43;20.52;;;5.97;;
70899;SDS011;67902;52.154;5.430;2023-05-23T04:06:10;24.15;;;6.20;;
70899;SDS011;67902;52.154;5.430;2023-05-23T04:08:39;18.23;;;5.53;;
70899;SDS011;67902;52.154;5.430;2023-05-23T04:11:07;21.70;;;5.97;;
70899;SDS011;67902;52.154;5.430;2023-05-23T04:13:33;22.08;;;5.28;;
70899;SDS011;67902;52.154;5.430;2023-05-23T04:16:00;19.17;;;5.13;;
70899;SDS011;67902;52.154;5.430;2023-05-23T04:18:31;19.30;;;5.22;;
70899;SDS011;67902;52.154;5.430;2023-05-23T04:21:01;19.30;;;5.80;;
70899;SDS011;67902;52.154;5.430;2023-05-23T04:23:27;24.40;;;5.20;;
70899;SDS011;67902;52.154;5.430;2023-05-23T04:25:54;20.13;;;4.68;;
70899;SDS011;67902;52.154;5.430;2023-05-23T04:28:22;14.95;;;4.43;;
70899;SDS011;67902;52.154;5.430;2023-05-23T04:30:49;18.50;;;4.88;;
70899;SDS011;67902;52.154;5.430;2023-05-23T04:33:16;17.23;;;4.70;;
70899;SDS011;67902;52.154;5.430;2023-05-23T04:35:43;13.07;;;3.92;;
70899;SDS011;67902;52.154;5.430;2023-05-23T04:38:11;17.45;;;4.18;;
70899;SDS011;67902;52.154;5.430;2023-05-23T04:40:38;14.75;;;4.22;;
70899;SDS011;67902;52.154;5.430;2023-05-23T04:43:05;12.57;;;3.30;;
70899;SDS011;67902;52.154;5.430;2023-05-23T04:45:31;12.63;;;3.90;;
70899;SDS011;67902;52.154;5.430;2023-05-23T04:47:57;13.45;;;3.63;;
70899;SDS011;67902;52.154;5.430;2023-05-23T04:50:24;12.77;;;3.30;;
70899;SDS011;67902;52.154;5.430;2023-05-23T04:52:51;9.27;;;3.63;;
70899;SDS011;67902;52.154;5.430;2023-05-23T04:55:17;12.85;;;3.78;;
70899;SDS011;67902;52.154;5.430;2023-05-23T04:57:45;12.20;;;3.80;;
70899;SDS011;67902;52.154;5.430;2023-05-23T05:00:11;15.82;;;3.78;;
70899;SDS011;67902;52.154;5.430;2023-05-23T05:02:39;13.18;;;3.88;;
70899;SDS011;67902;52.154;5.430;2023-05-23T05:05:06;14.13;;;3.97;;
70899;SDS011;67902;52.154;5.430;2023-05-23T05:07:33;13.15;;;3.55;;
70899;SDS011;67902;52.154;5.430;2023-05-23T05:10:01;14.98;;;4.30;;
70899;SDS011;67902;52.154;5.430;2023-05-23T05:12:28;15.57;;;4.88;;
70899;SDS011;67902;52.154;5.430;2023-05-23T05:14:54;16.08;;;4.60;;
70899;SDS011;67902;52.154;5.430;2023-05-23T05:17:20;18.27;;;3.92;;
70899;SDS011;67902;52.154;5.430;2023-05-23T05:19:47;12.32;;;3.65;;
70899;SDS011;67902;52.154;5.430;2023-05-23T05:22:14;12.75;;;3.70;;
70899;SDS011;67902;52.154;5.430;2023-05-23T05:24:40;13.43;;;4.20;;
70899;SDS011;67902;52.154;5.430;2023-05-23T05:27:06;15.32;;;3.63;;
70899;SDS011;67902;52.154;5.430;2023-05-23T05:29:34;14.95;;;3.70;;
70899;SDS011;67902;52.154;5.430;2023-05-23T05:32:01;14.95;;;3.72;;
70899;SDS011;67902;52.154;5.430;2023-05-23T05:34:28;12.13;;;3.30;;
70899;SDS011;67902;52.154;5.430;2023-05-23T05:36:54;15.15;;;3.63;;
70899;SDS011;67902;52.154;5.430;2023-05-23T05:39:23;15.98;;;3.90;;
70899;SDS011;67902;52.154;5.430;2023-05-23T05:41:51;13.57;;;3.67;;
70899;SDS011;67902;52.154;5.430;2023-05-23T05:44:17;14.55;;;3.53;;
70899;SDS011;67902;52.154;5.430;2023-05-23T05:46:44;18.00;;;3.85;;
70899;SDS011;67902;52.154;5.430;2023-05-23T05:49:11;20.58;;;3.88;;
70899;SDS011;67902;52.154;5.430;2023-05-23T05:51:37;13.10;;;4.38;;
70899;SDS011;67902;52.154;5.430;2023-05-23T05:54:04;14.25;;;3.90;;
70899;SDS011;67902;52.154;5.430;2023-05-23T05:56:31;17.48;;;4.13;;
70899;SDS011;67902;52.154;5.430;2023-05-23T05:58:57;19.63;;;4.03;;
70899;SDS011;67902;52.154;5.430;2023-05-23T06:01:23;20.17;;;4.40;;
70899;SDS011;67902;52.154;5.430;2023-05-23T06:03:50;16.70;;;4.68;;
70899;SDS011;67902;52.154;5.430;2023-05-23T06:06:17;17.48;;;4.43;;
70899;SDS011;67902;52.154;5.430;2023-05-23T06:08:44;15.23;;;4.22;;
70899;SDS011;67902;52.154;5.430;2023-05-23T06:11:11;12.32;;;3.95;;
70899;SDS011;67902;52.154;5.430;2023-05-23T06:13:37;13.57;;;3.97;;
70899;SDS011;67902;52.154;5.430;2023-05-23T06:16:07;10.82;;;4.00;;
70899;SDS011;67902;52.154;5.430;2023-05-23T06:18:34;18.40;;;4.00;;
70899;SDS011;67902;52.154;5.430;2023-05-23T06:21:00;14.73;;;3.97;;
70899;SDS011;67902;52.154;5.430;2023-05-23T06:23:26;16.55;;;5.00;;
70899;SDS011;67902;52.154;5.430;2023-05-23T06:25:53;15.88;;;4.32;;
70899;SDS011;67902;52.154;5.430;2023-05-23T06:28:19;12.30;;;4.50;;
70899;SDS011;67902;52.154;5.430;2023-05-23T06:30:46;16.75;;;4.63;;
70899;SDS011;67902;52.154;5.430;2023-05-23T06:33:12;12.35;;;4.07;;
70899;SDS011;67902;52.154;5.430;2023-05-23T06:35:39;19.27;;;4.50;;
70899;SDS011;67902;52.154;5.430;2023-05-23T06:38:05;16.20;;;4.03;;
70899;SDS011;67902;52.154;5.430;2023-05-23T06:40:32;16.35;;;5.10;;
70899;SDS011;67902;52.154;5.430;2023-05-23T06:42:58;15.90;;;4.32;;
70899;SDS011;67902;52.154;5.430;2023-05-23T06:45:25;15.95;;;4.80;;
70899;SDS011;67902;52.154;5.430;2023-05-23T06:47:51;12.77;;;4.13;;
70899;SDS011;67902;52.154;5.430;2023-05-23T06:50:18;11.45;;;3.72;;
70899;SDS011;67902;52.154;5.430;2023-05-23T06:52:47;12.02;;;4.88;;
70899;SDS011;67902;52.154;5.430;2023-05-23T06:55:15;12.05;;;3.58;;
70899;SDS011;67902;52.154;5.430;2023-05-23T06:57:44;11.63;;;3.50;;
70899;SDS011;67902;52.154;5.430;2023-05-23T07:00:12;13.82;;;3.40;;
70899;SDS011;67902;52.154;5.430;2023-05-23T07:02:38;16.00;;;4.18;;
70899;SDS011;67902;52.154;5.430;2023-05-23T07:05:05;13.10;;;3.00;;
70899;SDS011;67902;52.154;5.430;2023-05-23T07:07:32;10.48;;;2.42;;
70899;SDS011;67902;52.154;5.430;2023-05-23T07:10:01;13.38;;;2.78;;
70899;SDS011;67902;52.154;5.430;2023-05-23T07:12:28;10.63;;;2.65;;
70899;SDS011;67902;52.154;5.430;2023-05-23T07:14:54;15.82;;;2.65;;
70899;SDS011;67902;52.154;5.430;2023-05-23T07:17:21;11.68;;;2.50;;
70899;SDS011;67902;52.154;5.430;2023-05-23T07:19:47;10.63;;;2.20;;
70899;SDS011;67902;52.154;5.430;2023-05-23T07:22:14;16.40;;;3.08;;
70899;SDS011;67902;52.154;5.430;2023-05-23T07:24:40;13.82;;;2.88;;
70899;SDS011;67902;52.154;5.430;2023-05-23T07:27:07;14.82;;;2.60;;
70899;SDS011;67902;52.154;5.430;2023-05-23T07:29:33;16.02;;;2.72;;
70899;SDS011;67902;52.154;5.430;2023-05-23T07:32:00;10.38;;;2.10;;
70899;SDS011;67902;52.154;5.430;2023-05-23T07:34:26;13.70;;;2.28;;
70899;SDS011;67902;52.154;5.430;2023-05-23T07:36:53;10.18;;;2.95;;
70899;SDS011;67902;52.154;5.430;2023-05-23T07:39:19;17.63;;;2.47;;
70899;SDS011;67902;52.154;5.430;2023-05-23T07:41:47;13.52;;;2.50;;
70899;SDS011;67902;52.154;5.430;2023-05-23T07:46:43;13.48;;;2.58;;
70899;SDS011;67902;52.154;5.430;2023-05-23T07:49:09;14.43;;;2.30;;
70899;SDS011;67902;52.154;5.430;2023-05-23T07:51:36;10.75;;;2.30;;
70899;SDS011;67902;52.154;5.430;2023-05-23T07:54:02;10.23;;;2.30;;
70899;SDS011;67902;52.154;5.430;2023-05-23T07:56:29;14.20;;;2.47;;
70899;SDS011;67902;52.154;5.430;2023-05-23T07:58:56;14.93;;;2.10;;
70899;SDS011;67902;52.154;5.430;2023-05-23T08:01:22;14.32;;;2.45;;
70899;SDS011;67902;52.154;5.430;2023-05-23T08:03:50;9.82;;;2.30;;
70899;SDS011;67902;52.154;5.430;2023-05-23T08:06:16;13.93;;;2.47;;
70899;SDS011;67902;52.154;5.430;2023-05-23T08:08:43;14.50;;;3.00;;
70899;SDS011;67902;52.154;5.430;2023-05-23T08:11:09;16.88;;;2.33;;
70899;SDS011;67902;52.154;5.430;2023-05-23T08:13:35;14.77;;;2.00;;
70899;SDS011;67902;52.154;5.430;2023-05-23T08:16:02;13.75;;;2.35;;
70899;SDS011;67902;52.154;5.430;2023-05-23T08:18:28;13.85;;;2.30;;
70899;SDS011;67902;52.154;5.430;2023-05-23T08:20:56;19.05;;;2.60;;
70899;SDS011;67902;52.154;5.430;2023-05-23T08:23:22;11.02;;;2.40;;
70899;SDS011;67902;52.154;5.430;2023-05-23T08:25:49;11.10;;;1.92;;
70899;SDS011;67902;52.154;5.430;2023-05-23T08:28:16;19.20;;;3.10;;
70899;SDS011;67902;52.154;5.430;2023-05-23T08:30:42;14.65;;;2.42;;
70899;SDS011;67902;52.154;5.430;2023-05-23T08:33:09;12.18;;;2.80;;
70899;SDS011;67902;52.154;5.430;2023-05-23T08:35:36;13.00;;;2.58;;
70899;SDS011;67902;52.154;5.430;2023-05-23T08:38:04;13.50;;;2.58;;
70899;SDS011;67902;52.154;5.430;2023-05-23T08:40:32;14.35;;;2.28;;
70899;SDS011;67902;52.154;5.430;2023-05-23T08:43:00;12.68;;;2.30;;
70899;SDS011;67902;52.154;5.430;2023-05-23T08:45:28;18.17;;;2.63;;
70899;SDS011;67902;52.154;5.430;2023-05-23T08:50:25;10.90;;;2.50;;
70899;SDS011;67902;52.154;5.430;2023-05-23T08:52:56;12.75;;;2.58;;
70899;SDS011;67902;52.154;5.430;2023-05-23T08:55:24;12.40;;;2.17;;
70899;SDS011;67902;52.154;5.430;2023-05-23T08:57:52;11.13;;;2.47;;
70899;SDS011;67902;52.154;5.430;2023-05-23T09:00:20;13.90;;;2.58;;
70899;SDS011;67902;52.154;5.430;2023-05-23T09:02:47;11.60;;;2.58;;
70899;SDS011;67902;52.154;5.430;2023-05-23T09:05:14;19.80;;;2.63;;
70899;SDS011;67902;52.154;5.430;2023-05-23T09:07:41;12.60;;;2.53;;
70899;SDS011;67902;52.154;5.430;2023-05-23T09:10:09;13.55;;;2.33;;
70899;SDS011;67902;52.154;5.430;2023-05-23T09:12:36;14.82;;;2.47;;
70899;SDS011;67902;52.154;5.430;2023-05-23T09:15:03;13.20;;;2.80;;
70899;SDS011;67902;52.154;5.430;2023-05-23T09:17:34;14.25;;;2.60;;
70899;SDS011;67902;52.154;5.430;2023-05-23T09:20:01;17.30;;;2.50;;
70899;SDS011;67902;52.154;5.430;2023-05-23T09:22:30;11.32;;;2.53;;
70899;SDS011;67902;52.154;5.430;2023-05-23T09:24:57;10.70;;;2.28;;
70899;SDS011;67902;52.154;5.430;2023-05-23T09:27:23;11.55;;;2.03;;
70899;SDS011;67902;52.154;5.430;2023-05-23T09:29:50;14.57;;;2.35;;
70899;SDS011;67902;52.154;5.430;2023-05-23T09:32:17;12.40;;;2.63;;
70899;SDS011;67902;52.154;5.430;2023-05-23T09:37:27;12.35;;;2.65;;
70899;SDS011;67902;52.154;5.430;2023-05-23T09:40:09;10.18;;;2.22;;
70899;SDS011;67902;52.154;5.430;2023-05-23T09:42:40;14.75;;;2.90;;
70899;SDS011;67902;52.154;5.430;2023-05-23T09:45:11;10.20;;;2.28;;
70899;SDS011;67902;52.154;5.430;2023-05-23T09:47:38;17.38;;;2.28;;
70899;SDS011;67902;52.154;5.430;2023-05-23T09:50:14;15.82;;;2.60;;
70899;SDS011;67902;52.154;5.430;2023-05-23T09:52:40;12.07;;;2.72;;
70899;SDS011;67902;52.154;5.430;2023-05-23T09:55:07;11.63;;;2.42;;
70899;SDS011;67902;52.154;5.430;2023-05-23T09:57:34;8.95;;;2.13;;
70899;SDS011;67902;52.154;5.430;2023-05-23T10:00:03;12.18;;;3.08;;
70899;SDS011;67902;52.154;5.430;2023-05-23T10:05:30;17.88;;;2.80;;
70899;SDS011;67902;52.154;5.430;2023-05-23T10:08:00;13.73;;;2.13;;
70899;SDS011;67902;52.154;5.430;2023-05-23T10:10:30;13.43;;;2.30;;
70899;SDS011;67902;52.154;5.430;2023-05-23T10:13:01;11.38;;;1.90;;
70899;SDS011;67902;52.154;5.430;2023-05-23T10:15:30;13.73;;;2.75;;
70899;SDS011;67902;52.154;5.430;2023-05-23T10:18:05;9.75;;;2.08;;
70899;SDS011;67902;52.154;5.430;2023-05-23T10:20:37;13.45;;;2.17;;
70899;SDS011;67902;52.154;5.430;2023-05-23T10:23:05;12.52;;;3.08;;
70899;SDS011;67902;52.154;5.430;2023-05-23T10:25:32;14.20;;;2.72;;
70899;SDS011;67902;52.154;5.430;2023-05-23T10:28:01;16.30;;;2.60;;
70899;SDS011;67902;52.154;5.430;2023-05-23T10:30:30;12.32;;;2.30;;
70899;SDS011;67902;52.154;5.430;2023-05-23T10:32:56;15.55;;;2.47;;
70899;SDS011;67902;52.154;5.430;2023-05-23T10:35:31;15.07;;;2.30;;
70899;SDS011;67902;52.154;5.430;2023-05-23T10:38:25;12.65;;;2.10;;
70899;SDS011;67902;52.154;5.430;2023-05-23T10:43:42;12.88;;;2.70;;
70899;SDS011;67902;52.154;5.430;2023-05-23T10:46:14;14.13;;;2.13;;
70899;SDS011;67902;52.154;5.430;2023-05-23T10:48:41;10.55;;;1.92;;
70899;SDS011;67902;52.154;5.430;2023-05-23T10:51:09;10.40;;;2.55;;
70899;SDS011;67902;52.154;5.430;2023-05-23T10:53:38;12.00;;;2.33;;
70899;SDS011;67902;52.154;5.430;2023-05-23T10:56:10;12.57;;;2.40;;
70899;SDS011;67902;52.154;5.430;2023-05-23T10:58:50;13.10;;;2.50;;
70899;SDS011;67902;52.154;5.430;2023-05-23T11:01:20;13.65;;;2.28;;
70899;SDS011;67902;52.154;5.430;2023-05-23T11:03:48;11.02;;;1.98;;
70899;SDS011;67902;52.154;5.430;2023-05-23T11:14:30;8.95;;;2.20;;
70899;SDS011;67902;52.154;5.430;2023-05-23T11:19:38;13.27;;;1.90;;
70899;SDS011;67902;52.154;5.430;2023-05-23T11:22:08;10.73;;;1.90;;
70899;SDS011;67902;52.154;5.430;2023-05-23T11:24:48;9.05;;;1.92;;
70899;SDS011;67902;52.154;5.430;2023-05-23T11:27:32;9.52;;;1.92;;
70899;SDS011;67902;52.154;5.430;2023-05-23T11:32:38;14.32;;;2.10;;
70899;SDS011;67902;52.154;5.430;2023-05-23T11:40:23;10.25;;;2.33;;
70899;SDS011;67902;52.154;5.430;2023-05-23T11:45:24;12.13;;;2.22;;
70899;SDS011;67902;52.154;5.430;2023-05-23T11:47:51;11.15;;;2.00;;
70899;SDS011;67902;52.154;5.430;2023-05-23T11:50:18;11.65;;;2.33;;
70899;SDS011;67902;52.154;5.430;2023-05-23T11:52:46;12.95;;;2.40;;
70899;SDS011;67902;52.154;5.430;2023-05-23T11:55:18;13.85;;;2.47;;
70899;SDS011;67902;52.154;5.430;2023-05-23T11:57:46;16.48;;;1.98;;
70899;SDS011;67902;52.154;5.430;2023-05-23T12:00:13;11.32;;;2.85;;
70899;SDS011;67902;52.154;5.430;2023-05-23T12:02:40;10.77;;;1.98;;
70899;SDS011;67902;52.154;5.430;2023-05-23T12:05:12;10.07;;;2.55;;
70899;SDS011;67902;52.154;5.430;2023-05-23T12:07:40;11.43;;;2.05;;
70899;SDS011;67902;52.154;5.430;2023-05-23T12:10:15;10.73;;;1.98;;
70899;SDS011;67902;52.154;5.430;2023-05-23T12:12:43;8.27;;;1.55;;
70899;SDS011;67902;52.154;5.430;2023-05-23T12:17:37;12.95;;;2.70;;
70899;SDS011;67902;52.154;5.430;2023-05-23T12:20:04;14.82;;;2.05;;
70899;SDS011;67902;52.154;5.430;2023-05-23T12:22:32;15.18;;;2.97;;
70899;SDS011;67902;52.154;5.430;2023-05-23T12:24:59;10.70;;;2.30;;
70899;SDS011;67902;52.154;5.430;2023-05-23T12:27:29;22.70;;;5.65;;
70899;SDS011;67902;52.154;5.430;2023-05-23T12:30:03;13.10;;;2.35;;
70899;SDS011;67902;52.154;5.430;2023-05-23T12:32:41;9.00;;;1.77;;
70899;SDS011;67902;52.154;5.430;2023-05-23T12:35:09;11.57;;;2.72;;
70899;SDS011;67902;52.154;5.430;2023-05-23T12:37:38;8.93;;;2.00;;
70899;SDS011;67902;52.154;5.430;2023-05-23T12:40:12;14.85;;;3.13;;
70899;SDS011;67902;52.154;5.430;2023-05-23T12:42:50;11.57;;;2.38;;
70899;SDS011;67902;52.154;5.430;2023-05-23T12:45:23;9.90;;;1.92;;
70899;SDS011;67902;52.154;5.430;2023-05-23T12:48:03;15.60;;;2.05;;
70899;SDS011;67902;52.154;5.430;2023-05-23T12:50:29;12.73;;;1.98;;
70899;SDS011;67902;52.154;5.430;2023-05-23T12:52:56;12.20;;;2.00;;
70899;SDS011;67902;52.154;5.430;2023-05-23T12:55:23;12.43;;;2.20;;
70899;SDS011;67902;52.154;5.430;2023-05-23T12:57:49;11.55;;;2.10;;
70899;SDS011;67902;52.154;5.430;2023-05-23T13:00:16;13.15;;;2.60;;
70899;SDS011;67902;52.154;5.430;2023-05-23T13:02:44;11.05;;;1.88;;
70899;SDS011;67902;52.154;5.430;2023-05-23T13:05:11;13.10;;;2.03;;
70899;SDS011;67902;52.154;5.430;2023-05-23T13:07:37;16.02;;;2.40;;
70899;SDS011;67902;52.154;5.430;2023-05-23T13:10:04;12.38;;;2.13;;
70899;SDS011;67902;52.154;5.430;2023-05-23T13:12:31;10.45;;;2.00;;
70899;SDS011;67902;52.154;5.430;2023-05-23T13:14:59;10.27;;;2.10;;
70899;SDS011;67902;52.154;5.430;2023-05-23T13:17:26;12.07;;;1.92;;
70899;SDS011;67902;52.154;5.430;2023-05-23T13:19:52;11.65;;;1.92;;
70899;SDS011;67902;52.154;5.430;2023-05-23T13:22:18;14.35;;;2.25;;
70899;SDS011;67902;52.154;5.430;2023-05-23T13:24:45;13.30;;;2.40;;
70899;SDS011;67902;52.154;5.430;2023-05-23T13:27:11;9.23;;;2.05;;
70899;SDS011;67902;52.154;5.430;2023-05-23T13:29:38;13.45;;;2.05;;
70899;SDS011;67902;52.154;5.430;2023-05-23T13:32:04;10.35;;;1.95;;
70899;SDS011;67902;52.154;5.430;2023-05-23T13:34:31;11.07;;;2.35;;
70899;SDS011;67902;52.154;5.430;2023-05-23T13:37:00;13.50;;;2.35;;
70899;SDS011;67902;52.154;5.430;2023-05-23T13:39:26;11.95;;;2.13;;
70899;SDS011;67902;52.154;5.430;2023-05-23T13:41:53;10.80;;;2.08;;
70899;SDS011;67902;52.154;5.430;2023-05-23T13:44:19;10.35;;;1.90;;
70899;SDS011;67902;52.154;5.430;2023-05-23T13:46:45;9.10;;;1.80;;
70899;SDS011;67902;52.154;5.430;2023-05-23T13:49:12;9.88;;;2.03;;
70899;SDS011;67902;52.154;5.430;2023-05-23T13:51:39;8.15;;;1.60;;
70899;SDS011;67902;52.154;5.430;2023-05-23T13:54:06;10.10;;;1.90;;
70899;SDS011;67902;52.154;5.430;2023-05-23T13:56:33;11.43;;;2.10;;
70899;SDS011;67902;52.154;5.430;2023-05-23T13:58:59;11.65;;;2.22;;
70899;SDS011;67902;52.154;5.430;2023-05-23T14:01:26;10.65;;;2.05;;
70899;SDS011;67902;52.154;5.430;2023-05-23T14:06:19;7.60;;;1.67;;
70899;SDS011;67902;52.154;5.430;2023-05-23T14:08:46;9.23;;;1.73;;
70899;SDS011;67902;52.154;5.430;2023-05-23T14:11:12;8.18;;;1.65;;
70899;SDS011;67902;52.154;5.430;2023-05-23T14:13:39;10.00;;;1.73;;
70899;SDS011;67902;52.154;5.430;2023-05-23T14:16:05;7.97;;;1.95;;
70899;SDS011;67902;52.154;5.430;2023-05-23T14:18:32;10.15;;;2.72;;
70899;SDS011;67902;52.154;5.430;2023-05-23T14:20:58;7.40;;;1.63;;
70899;SDS011;67902;52.154;5.430;2023-05-23T14:23:25;7.70;;;1.85;;
70899;SDS011;67902;52.154;5.430;2023-05-23T14:25:51;11.70;;;1.65;;
70899;SDS011;67902;52.154;5.430;2023-05-23T14:28:18;7.65;;;1.48;;
70899;SDS011;67902;52.154;5.430;2023-05-23T14:30:44;10.90;;;1.60;;
70899;SDS011;67902;52.154;5.430;2023-05-23T14:33:11;8.68;;;1.60;;
70899;SDS011;67902;52.154;5.430;2023-05-23T14:35:37;8.65;;;1.60;;
70899;SDS011;67902;52.154;5.430;2023-05-23T14:38:05;12.25;;;1.85;;
70899;SDS011;67902;52.154;5.430;2023-05-23T14:40:31;7.30;;;1.52;;
70899;SDS011;67902;52.154;5.430;2023-05-23T14:42:58;8.70;;;1.60;;
70899;SDS011;67902;52.154;5.430;2023-05-23T14:45:24;8.98;;;1.80;;
70899;SDS011;67902;52.154;5.430;2023-05-23T14:47:51;12.30;;;1.80;;
70899;SDS011;67902;52.154;5.430;2023-05-23T14:50:17;11.25;;;1.80;;
70899;SDS011;67902;52.154;5.430;2023-05-23T14:52:44;9.88;;;2.10;;
70899;SDS011;67902;52.154;5.430;2023-05-23T14:55:11;11.43;;;2.05;;
70899;SDS011;67902;52.154;5.430;2023-05-23T14:57:37;12.90;;;2.03;;
70899;SDS011;67902;52.154;5.430;2023-05-23T15:00:04;8.98;;;1.65;;
70899;SDS011;67902;52.154;5.430;2023-05-23T15:02:31;8.85;;;2.00;;
70899;SDS011;67902;52.154;5.430;2023-05-23T15:04:58;10.57;;;1.83;;
70899;SDS011;67902;52.154;5.430;2023-05-23T15:07:24;9.02;;;1.58;;
70899;SDS011;67902;52.154;5.430;2023-05-23T15:09:51;10.23;;;1.73;;
70899;SDS011;67902;52.154;5.430;2023-05-23T15:12:18;9.43;;;1.70;;
70899;SDS011;67902;52.154;5.430;2023-05-23T15:14:52;7.85;;;1.38;;
70899;SDS011;67902;52.154;5.430;2023-05-23T15:17:19;9.52;;;1.90;;
70899;SDS011;67902;52.154;5.430;2023-05-23T15:19:50;6.07;;;1.58;;
70899;SDS011;67902;52.154;5.430;2023-05-23T15:22:16;8.25;;;1.42;;